Time;durP1;ratioP1;P1;durP2;ratioP2;P2;SDS_P1;SDS_P2;PMS_P1;PMS_P2;Temp;Humidity;BMP_temperature;BMP_pressure;BME280_temperature;BME280_humidity;BME280_pressure;Samples;Min_cycle;Max_cycle;Signal;HPM_P1;HPM_P2
2023/04/25 00:01:33;;;;;;;4.07;1.85;;;11.30;99.90;;;;;;4939906;28;20027;-81
2023/04/25 00:03:59;;;;;;;4.55;2.03;;;11.40;99.90;;;;;;4958097;28;20360;-81
2023/04/25 00:06:27;;;;;;;5.13;2.00;;;11.30;99.90;;;;;;4920694;28;20027;-83
2023/04/25 00:08:53;;;;;;;4.93;1.85;;;11.30;99.90;;;;;;4935894;28;20047;-81
2023/04/25 00:11:19;;;;;;;5.20;2.00;;;11.40;99.90;;;;;;4932980;28;20042;-82
2023/04/25 00:13:46;;;;;;;5.40;2.10;;;11.40;99.90;;;;;;4931851;28;20324;-82
2023/04/25 00:16:14;;;;;;;5.05;2.25;;;11.40;99.90;;;;;;4949128;28;20082;-83
2023/04/25 00:18:41;;;;;;;3.85;1.85;;;11.40;99.90;;;;;;4928068;28;20027;-80
2023/04/25 00:21:07;;;;;;;5.43;2.00;;;11.40;99.90;;;;;;4928275;28;20028;-81
2023/04/25 00:23:35;;;;;;;5.13;1.93;;;11.40;99.90;;;;;;4949010;28;20451;-82
2023/04/25 00:26:01;;;;;;;5.22;2.10;;;11.40;99.90;;;;;;4925302;28;20030;-81
2023/04/25 00:28:27;;;;;;;4.18;2.08;;;11.40;99.90;;;;;;4945850;28;20515;-83
2023/04/25 00:30:53;;;;;;;5.90;2.22;;;11.40;99.90;;;;;;4951383;28;20475;-80
2023/04/25 00:33:18;;;;;;;4.67;1.97;;;11.40;99.90;;;;;;4928315;28;20512;-83
2023/04/25 00:35:44;;;;;;;4.05;1.85;;;11.40;99.90;;;;;;4928600;28;20122;-81
2023/04/25 00:38:10;;;;;;;5.47;1.63;;;11.40;99.90;;;;;;4938608;28;20031;-83
2023/04/25 00:40:36;;;;;;;4.87;2.07;;;11.40;99.90;;;;;;4916488;28;21195;-81
2023/04/25 00:43:01;;;;;;;3.57;1.50;;;11.40;99.90;;;;;;4947523;28;20063;-81
2023/04/25 00:45:31;;;;;;;4.63;1.70;;;11.40;99.90;;;;;;4923640;28;20053;-82
2023/04/25 00:47:57;;;;;;;4.07;1.90;;;11.40;99.90;;;;;;4936317;28;20051;-81
2023/04/25 00:50:23;;;;;;;5.70;1.53;;;11.30;99.90;;;;;;4937376;28;20122;-82
2023/04/25 00:52:49;;;;;;;3.42;1.38;;;11.30;99.90;;;;;;4950614;28;20039;-82
2023/04/25 00:55:16;;;;;;;4.13;1.38;;;11.30;99.90;;;;;;4941083;28;20396;-83
2023/04/25 00:57:42;;;;;;;9.35;1.90;;;11.30;99.90;;;;;;4923540;28;20122;-82
2023/04/25 01:00:14;;;;;;;6.07;2.20;;;11.30;99.90;;;;;;4947236;28;20125;-80
2023/04/25 01:02:41;;;;;;;4.53;1.40;;;11.30;99.90;;;;;;4943009;28;20129;-82
2023/04/25 01:05:08;;;;;;;4.30;1.50;;;11.30;99.90;;;;;;4950285;28;20234;-81
2023/04/25 01:07:34;;;;;;;4.43;1.52;;;11.30;99.90;;;;;;4945757;28;20169;-82
2023/04/25 01:10:00;;;;;;;3.43;1.47;;;11.20;99.90;;;;;;4945767;28;20047;-80
2023/04/25 01:12:25;;;;;;;3.72;1.48;;;11.20;99.90;;;;;;4935727;28;20050;-82
2023/04/25 01:14:51;;;;;;;4.17;1.70;;;11.20;99.90;;;;;;4945943;28;20031;-80
2023/04/25 01:17:18;;;;;;;3.63;1.83;;;11.20;99.90;;;;;;4948992;28;20042;-82
2023/04/25 01:19:45;;;;;;;3.55;1.60;;;11.20;99.90;;;;;;4941981;28;20031;-82
2023/04/25 01:22:11;;;;;;;4.63;1.30;;;11.20;99.90;;;;;;4953640;28;20113;-81
2023/04/25 01:24:37;;;;;;;3.20;1.42;;;11.20;99.90;;;;;;4948545;28;20280;-81
2023/04/25 01:27:04;;;;;;;4.82;1.67;;;11.20;99.90;;;;;;4935897;28;20055;-81
2023/04/25 01:29:32;;;;;;;4.07;1.40;;;11.20;99.90;;;;;;4925951;28;20224;-81
2023/04/25 01:31:58;;;;;;;3.55;1.25;;;11.10;99.90;;;;;;4953512;28;20101;-81
2023/04/25 01:34:25;;;;;;;3.93;1.50;;;11.10;99.90;;;;;;4916573;28;20094;-82
2023/04/25 01:36:51;;;;;;;5.00;1.65;;;11.10;99.90;;;;;;4953452;28;20046;-81
2023/04/25 01:39:20;;;;;;;5.05;1.50;;;11.10;99.90;;;;;;4949508;28;20042;-83
2023/04/25 01:41:49;;;;;;;2.88;1.40;;;11.20;99.90;;;;;;4925019;28;20786;-82
2023/04/25 01:44:15;;;;;;;3.67;1.23;;;11.10;99.90;;;;;;4924133;28;20495;-83
2023/04/25 01:46:41;;;;;;;3.30;1.40;;;11.10;99.90;;;;;;4932849;28;20539;-81
2023/04/25 01:49:07;;;;;;;4.25;1.30;;;11.10;99.90;;;;;;4940876;28;20384;-81
2023/04/25 01:51:33;;;;;;;2.92;1.05;;;11.10;99.90;;;;;;4946643;28;20126;-81
2023/04/25 01:54:00;;;;;;;3.93;1.40;;;11.10;99.90;;;;;;4934013;28;20031;-81
2023/04/25 01:56:30;;;;;;;4.97;1.77;;;11.10;99.90;;;;;;4947205;28;20034;-83
2023/04/25 01:58:56;;;;;;;5.07;1.75;;;11.00;99.90;;;;;;4934557;28;20035;-82
2023/04/25 02:01:22;;;;;;;3.25;1.30;;;11.00;99.90;;;;;;4938022;28;20022;-82
2023/04/25 02:03:48;;;;;;;3.83;1.30;;;11.00;99.90;;;;;;4936282;28;20109;-80
2023/04/25 02:06:14;;;;;;;2.88;1.35;;;11.00;99.90;;;;;;4954196;28;20038;-83
2023/04/25 02:08:40;;;;;;;4.40;1.40;;;10.90;99.90;;;;;;4942734;28;20276;-81
2023/04/25 02:11:05;;;;;;;6.47;1.73;;;10.90;99.90;;;;;;4930699;28;20066;-80
2023/04/25 02:13:31;;;;;;;4.03;1.53;;;10.90;99.90;;;;;;4921306;28;20081;-81
2023/04/25 02:15:57;;;;;;;3.95;1.50;;;10.90;99.90;;;;;;4939017;28;20069;-82
2023/04/25 02:18:23;;;;;;;3.38;1.42;;;10.90;99.90;;;;;;4946739;28;20043;-83
2023/04/25 02:20:49;;;;;;;4.23;1.33;;;10.80;99.90;;;;;;4949681;28;20026;-81
2023/04/25 02:23:15;;;;;;;6.38;1.65;;;10.80;99.90;;;;;;4929852;28;20089;-83
2023/04/25 02:25:41;;;;;;;2.67;1.40;;;10.80;99.90;;;;;;4918651;28;20049;-81
2023/04/25 02:28:07;;;;;;;3.97;1.30;;;10.80;99.90;;;;;;4937658;28;20031;-82
2023/04/25 02:30:33;;;;;;;4.38;1.25;;;10.80;99.90;;;;;;4933800;28;20448;-80
2023/04/25 02:32:59;;;;;;;3.50;1.37;;;10.80;99.90;;;;;;4943353;28;20737;-82
2023/04/25 02:35:25;;;;;;;3.90;1.40;;;10.80;99.90;;;;;;4949037;28;20058;-82
2023/04/25 02:37:51;;;;;;;2.47;1.25;;;10.80;99.90;;;;;;4945822;28;20477;-80
2023/04/25 02:40:17;;;;;;;5.97;1.42;;;10.80;99.90;;;;;;4930991;28;20857;-82
2023/04/25 02:42:45;;;;;;;3.37;1.30;;;10.80;99.90;;;;;;4948267;28;20304;-81
2023/04/25 02:45:10;;;;;;;4.22;1.58;;;10.80;99.90;;;;;;4934469;28;20457;-82
2023/04/25 02:47:36;;;;;;;3.28;1.60;;;10.80;99.90;;;;;;4933485;28;20031;-82
2023/04/25 02:50:02;;;;;;;3.07;1.50;;;10.80;99.90;;;;;;4940861;28;20033;-81
2023/04/25 02:52:28;;;;;;;4.97;1.80;;;10.80;99.90;;;;;;4921460;28;20027;-83
2023/04/25 02:54:54;;;;;;;3.13;1.52;;;10.80;99.90;;;;;;4948236;28;20050;-82
2023/04/25 02:57:20;;;;;;;6.33;1.73;;;10.70;99.90;;;;;;4945405;28;20031;-82
2023/04/25 02:59:46;;;;;;;5.13;1.75;;;10.80;99.90;;;;;;4932558;28;20046;-81
2023/04/25 03:02:12;;;;;;;5.30;1.90;;;10.80;99.90;;;;;;4924322;28;20031;-82
2023/04/25 03:04:37;;;;;;;6.47;1.90;;;10.70;99.90;;;;;;4941459;28;20231;-81
2023/04/25 03:07:03;;;;;;;4.88;1.92;;;10.70;99.90;;;;;;4936794;28;20033;-81
2023/04/25 03:09:29;;;;;;;4.40;1.63;;;10.70;99.90;;;;;;4938623;28;20336;-83
2023/04/25 03:11:55;;;;;;;3.80;1.70;;;10.70;99.90;;;;;;4926824;28;20312;-82
2023/04/25 03:14:21;;;;;;;3.67;1.50;;;10.60;99.90;;;;;;4914515;28;20071;-82
2023/04/25 03:16:47;;;;;;;4.47;1.87;;;10.60;99.90;;;;;;4915329;28;20465;-79
2023/04/25 03:19:15;;;;;;;3.25;1.40;;;10.60;99.90;;;;;;4927706;28;20648;-80
2023/04/25 03:21:41;;;;;;;5.95;1.60;;;10.50;99.90;;;;;;4913907;29;20245;-81
2023/04/25 03:24:07;;;;;;;3.63;1.83;;;10.50;99.90;;;;;;4935354;28;20483;-80
2023/04/25 03:26:33;;;;;;;4.30;1.38;;;10.50;99.90;;;;;;4920234;28;20658;-80
2023/04/25 03:28:59;;;;;;;2.90;1.40;;;10.40;99.90;;;;;;4925397;28;20023;-82
2023/04/25 03:31:25;;;;;;;3.40;1.50;;;10.40;99.90;;;;;;4913345;28;20028;-83
2023/04/25 03:33:51;;;;;;;3.88;1.50;;;10.40;99.90;;;;;;4927986;28;20069;-84
2023/04/25 03:36:16;;;;;;;5.65;1.70;;;10.30;99.90;;;;;;4938863;28;20062;-86
2023/04/25 03:38:43;;;;;;;3.37;1.60;;;10.30;99.90;;;;;;4932823;28;20298;-84
2023/04/25 03:41:09;;;;;;;3.15;1.60;;;10.30;99.90;;;;;;4920226;29;20119;-85
2023/04/25 03:43:34;;;;;;;4.50;1.60;;;10.30;99.90;;;;;;4905344;28;20222;-85
2023/04/25 03:46:00;;;;;;;3.97;1.40;;;10.30;99.90;;;;;;4915799;28;20105;-84
2023/04/25 03:48:26;;;;;;;2.57;1.23;;;10.30;99.90;;;;;;4909582;28;20023;-86
2023/04/25 03:50:53;;;;;;;3.85;1.40;;;10.30;99.90;;;;;;4921499;29;20019;-83
2023/04/25 03:53:19;;;;;;;2.95;1.35;;;10.20;99.90;;;;;;4918438;28;20448;-86
2023/04/25 03:55:45;;;;;;;3.20;1.30;;;10.20;99.90;;;;;;4932357;28;20133;-84
2023/04/25 03:58:10;;;;;;;5.40;1.57;;;10.20;99.90;;;;;;4931207;28;20062;-85
2023/04/25 04:00:36;;;;;;;4.72;1.65;;;10.10;99.90;;;;;;4906431;28;20090;-84
2023/04/25 04:03:02;;;;;;;3.03;1.40;;;10.20;99.90;;;;;;4913521;28;20028;-84
2023/04/25 04:05:28;;;;;;;4.15;1.75;;;10.10;99.90;;;;;;4923636;28;20027;-84
2023/04/25 04:07:55;;;;;;;4.43;1.45;;;10.10;99.90;;;;;;4931477;28;20027;-85
2023/04/25 04:10:21;;;;;;;4.28;1.58;;;10.10;99.90;;;;;;4933628;28;20130;-85
2023/04/25 04:12:46;;;;;;;2.77;1.40;;;10.10;99.90;;;;;;4931453;28;22429;-83
2023/04/25 04:15:13;;;;;;;4.45;1.65;;;10.20;99.90;;;;;;4930129;28;20651;-85
2023/04/25 04:17:39;;;;;;;4.72;1.50;;;10.10;99.90;;;;;;4916147;28;20480;-84
2023/04/25 04:20:06;;;;;;;3.03;1.30;;;10.10;99.90;;;;;;4912567;28;20542;-85
2023/04/25 04:22:31;;;;;;;3.47;1.47;;;10.10;99.90;;;;;;4933661;28;20569;-83
2023/04/25 04:24:57;;;;;;;4.00;1.50;;;10.10;99.90;;;;;;4916302;29;20034;-83
2023/04/25 04:27:23;;;;;;;4.53;1.45;;;10.10;99.90;;;;;;4928034;28;20063;-85
2023/04/25 04:29:52;;;;;;;4.23;1.47;;;10.10;99.90;;;;;;4934562;28;20062;-83
2023/04/25 04:32:19;;;;;;;3.05;1.55;;;10.10;99.90;;;;;;4927599;28;20027;-86
2023/04/25 04:34:47;;;;;;;3.92;1.52;;;10.10;99.90;;;;;;4916321;28;20191;-84
2023/04/25 04:37:13;;;;;;;4.22;1.70;;;10.10;99.90;;;;;;4928956;28;20031;-86
2023/04/25 04:39:39;;;;;;;4.53;1.60;;;10.10;99.90;;;;;;4930021;28;20364;-84
2023/04/25 04:42:05;;;;;;;5.45;1.80;;;10.10;99.90;;;;;;4932806;28;20031;-84
2023/04/25 04:44:32;;;;;;;8.63;1.85;;;10.10;99.90;;;;;;4927493;28;20035;-85
2023/04/25 04:46:58;;;;;;;4.93;1.50;;;10.10;99.90;;;;;;4929083;28;20074;-84
2023/04/25 04:49:24;;;;;;;2.85;1.48;;;10.10;99.90;;;;;;4923799;28;20031;-86
2023/04/25 04:51:50;;;;;;;4.68;1.70;;;10.10;99.90;;;;;;4919101;28;20018;-83
2023/04/25 04:54:16;;;;;;;5.57;2.03;;;10.10;99.90;;;;;;4937852;28;20027;-85
2023/04/25 04:56:42;;;;;;;4.15;1.80;;;10.10;99.90;;;;;;4935348;28;20032;-83
2023/04/25 04:59:08;;;;;;;5.88;1.58;;;10.10;99.90;;;;;;4935167;28;20031;-84
2023/04/25 05:01:37;;;;;;;4.40;2.10;;;10.10;99.90;;;;;;4932201;28;20557;-84
2023/04/25 05:04:03;;;;;;;4.47;2.00;;;10.10;99.90;;;;;;4907677;28;20023;-84
2023/04/25 05:06:31;;;;;;;5.65;2.47;;;10.10;99.90;;;;;;4915397;28;20034;-85
2023/04/25 05:08:57;;;;;;;4.80;2.33;;;10.10;99.90;;;;;;4915864;28;20036;-83
2023/04/25 05:11:24;;;;;;;5.43;2.60;;;10.00;99.90;;;;;;4931953;28;20063;-84
2023/04/25 05:13:52;;;;;;;4.38;2.05;;;10.10;99.90;;;;;;4926984;28;20074;-83
2023/04/25 05:16:18;;;;;;;3.57;1.87;;;10.10;99.90;;;;;;4927394;28;20065;-85
2023/04/25 05:18:44;;;;;;;5.22;1.90;;;10.10;99.90;;;;;;4936817;28;20561;-83
2023/04/25 05:21:10;;;;;;;5.00;2.10;;;10.10;99.90;;;;;;4920175;28;20524;-84
2023/04/25 05:23:36;;;;;;;4.97;2.00;;;10.10;99.90;;;;;;4905462;28;20258;-81
2023/04/25 05:26:02;;;;;;;3.53;1.85;;;10.10;99.90;;;;;;4923338;28;20031;-83
2023/04/25 05:28:28;;;;;;;4.78;1.67;;;10.10;99.90;;;;;;4938291;28;20391;-84
2023/04/25 05:30:54;;;;;;;4.70;1.87;;;10.10;99.90;;;;;;4933927;28;20027;-83
2023/04/25 05:33:19;;;;;;;4.07;1.65;;;10.20;99.90;;;;;;4928845;28;20024;-84
2023/04/25 05:35:45;;;;;;;4.03;1.92;;;10.20;99.90;;;;;;4904018;28;20526;-83
2023/04/25 05:38:11;;;;;;;6.70;2.57;;;10.20;99.90;;;;;;4917798;28;20043;-84
2023/04/25 05:40:37;;;;;;;5.50;2.15;;;10.20;99.90;;;;;;4920966;28;20035;-84
2023/04/25 05:43:03;;;;;;;4.80;1.60;;;10.20;99.90;;;;;;4950388;28;20039;-82
2023/04/25 05:45:28;;;;;;;4.43;1.87;;;10.30;99.90;;;;;;4933399;28;20049;-85
2023/04/25 05:47:54;;;;;;;3.65;2.00;;;10.30;99.90;;;;;;4928323;28;20028;-82
2023/04/25 05:50:21;;;;;;;4.83;1.73;;;10.40;99.90;;;;;;4917532;28;20087;-82
2023/04/25 05:52:46;;;;;;;6.10;2.40;;;10.40;99.90;;;;;;4911110;28;20058;-81
2023/04/25 05:55:12;;;;;;;6.03;2.70;;;10.40;99.90;;;;;;4908142;28;20031;-81
2023/04/25 05:57:41;;;;;;;3.42;1.70;;;10.50;99.90;;;;;;4934201;28;20111;-85
2023/04/25 06:00:09;;;;;;;3.67;1.70;;;10.50;99.90;;;;;;4954507;28;20020;-81
2023/04/25 06:02:35;;;;;;;5.23;2.17;;;10.50;99.90;;;;;;4932693;28;20023;-85
2023/04/25 06:05:03;;;;;;;3.83;1.73;;;10.60;99.90;;;;;;4927443;28;20110;-83
2023/04/25 06:07:29;;;;;;;6.20;1.90;;;10.60;99.90;;;;;;4925099;28;20110;-84
2023/04/25 06:09:55;;;;;;;5.45;1.80;;;10.70;99.90;;;;;;4923757;28;20043;-82
2023/04/25 06:12:21;;;;;;;3.93;2.00;;;10.70;99.90;;;;;;4956486;28;20023;-84
2023/04/25 06:14:46;;;;;;;4.70;1.90;;;10.80;99.90;;;;;;4952606;28;20317;-83
2023/04/25 06:17:12;;;;;;;3.83;2.20;;;10.80;99.90;;;;;;4940307;28;20550;-82
2023/04/25 06:19:38;;;;;;;5.70;1.80;;;10.80;99.90;;;;;;4920488;28;20572;-84
2023/04/25 06:22:04;;;;;;;3.83;2.00;;;10.90;99.90;;;;;;4953545;28;20114;-82
2023/04/25 06:24:30;;;;;;;4.50;1.70;;;10.90;99.90;;;;;;4890886;28;21048;-83
2023/04/25 06:26:56;;;;;;;5.97;1.80;;;10.90;99.90;;;;;;4949922;28;20058;-81
2023/04/25 06:29:21;;;;;;;4.70;1.92;;;10.90;99.90;;;;;;4946419;28;20019;-81
2023/04/25 06:31:47;;;;;;;3.23;1.90;;;11.00;99.90;;;;;;4952422;28;20093;-83
2023/04/25 06:34:13;;;;;;;4.78;1.88;;;11.00;99.90;;;;;;4951906;28;20037;-85
2023/04/25 06:36:41;;;;;;;3.57;1.73;;;11.00;99.90;;;;;;4927625;28;20070;-83
2023/04/25 06:39:06;;;;;;;3.25;1.85;;;11.00;99.90;;;;;;4899266;28;20253;-83
2023/04/25 06:41:32;;;;;;;4.28;1.92;;;11.10;99.90;;;;;;4915878;28;20042;-83
2023/04/25 06:43:58;;;;;;;3.50;1.83;;;11.10;99.90;;;;;;4940997;28;20366;-82
2023/04/25 06:46:24;;;;;;;5.25;1.85;;;11.20;99.90;;;;;;4944855;28;20221;-83
2023/04/25 06:48:50;;;;;;;3.97;1.83;;;11.20;99.90;;;;;;4943824;28;20029;-83
2023/04/25 06:51:15;;;;;;;5.18;1.95;;;11.20;99.90;;;;;;4941157;28;20241;-85
2023/04/25 06:53:41;;;;;;;3.92;1.67;;;11.30;99.90;;;;;;4936921;28;20444;-82
2023/04/25 06:56:07;;;;;;;5.17;1.83;;;11.40;99.90;;;;;;4902740;28;20026;-85
2023/04/25 06:58:32;;;;;;;3.90;1.63;;;11.40;99.90;;;;;;4931030;28;20150;-83
2023/04/25 07:00:58;;;;;;;5.63;1.85;;;11.50;99.90;;;;;;4946721;28;20035;-81
2023/04/25 07:03:24;;;;;;;5.03;2.10;;;11.60;99.90;;;;;;4939357;28;20077;-82
2023/04/25 07:05:50;;;;;;;3.70;2.00;;;11.60;99.90;;;;;;4932205;28;20105;-83
2023/04/25 07:08:16;;;;;;;4.18;2.05;;;11.70;99.90;;;;;;4932885;28;20070;-84
2023/04/25 07:10:43;;;;;;;4.23;2.00;;;11.80;99.90;;;;;;4917657;28;20043;-81
2023/04/25 07:13:08;;;;;;;4.75;2.15;;;11.90;99.90;;;;;;4940428;28;20058;-84
2023/04/25 07:15:34;;;;;;;4.72;1.98;;;11.90;99.90;;;;;;4927839;28;20808;-83
2023/04/25 07:18:00;;;;;;;4.43;1.98;;;12.00;99.90;;;;;;4933914;28;20026;-81
2023/04/25 07:20:27;;;;;;;3.93;2.00;;;12.10;99.90;;;;;;4914912;28;20794;-81
2023/04/25 07:22:53;;;;;;;5.90;1.90;;;12.10;99.90;;;;;;4948385;28;20018;-82
2023/04/25 07:25:19;;;;;;;3.35;1.75;;;12.10;99.90;;;;;;4934088;28;20029;-85
2023/04/25 07:27:45;;;;;;;2.90;1.40;;;12.20;99.90;;;;;;4914784;28;20039;-82
2023/04/25 07:30:12;;;;;;;3.53;1.70;;;12.20;99.90;;;;;;4947655;28;20106;-84
2023/04/25 07:32:38;;;;;;;2.55;1.27;;;12.30;99.90;;;;;;4939385;28;20157;-83
2023/04/25 07:35:06;;;;;;;4.25;1.35;;;12.30;99.90;;;;;;4937449;28;20559;-84
2023/04/25 07:37:33;;;;;;;3.40;1.20;;;12.40;99.90;;;;;;4931099;28;20416;-82
2023/04/25 07:39:58;;;;;;;3.47;1.30;;;12.30;99.90;;;;;;4926018;28;20039;-84
2023/04/25 07:42:24;;;;;;;3.10;1.60;;;12.30;99.90;;;;;;4917947;28;20050;-82
2023/04/25 07:44:51;;;;;;;3.83;1.40;;;12.30;99.90;;;;;;4919946;28;20327;-84
2023/04/25 07:47:19;;;;;;;3.58;1.42;;;12.30;99.90;;;;;;4914666;28;20102;-82
2023/04/25 07:49:45;;;;;;;2.58;1.17;;;12.30;99.90;;;;;;4949068;28;20031;-83
2023/04/25 07:52:12;;;;;;;2.53;1.10;;;12.20;99.90;;;;;;4928216;28;20579;-85
2023/04/25 07:54:38;;;;;;;3.63;1.30;;;12.20;99.90;;;;;;4949354;28;20019;-81
2023/04/25 07:57:06;;;;;;;3.07;1.30;;;12.20;99.90;;;;;;4941442;28;20038;-83
2023/04/25 07:59:32;;;;;;;2.83;1.20;;;12.20;99.90;;;;;;4927243;28;20262;-82
2023/04/25 08:01:58;;;;;;;3.47;1.63;;;12.30;99.90;;;;;;4929165;28;20024;-84
2023/04/25 08:04:25;;;;;;;2.30;1.30;;;12.30;99.90;;;;;;4945644;28;20142;-82
2023/04/25 08:06:52;;;;;;;3.65;1.45;;;12.40;99.90;;;;;;4948909;28;20126;-82
2023/04/25 08:09:17;;;;;;;2.67;1.40;;;12.50;99.90;;;;;;4941271;28;20043;-82
2023/04/25 08:11:43;;;;;;;2.63;1.50;;;12.60;99.90;;;;;;4947787;28;20037;-81
2023/04/25 08:14:09;;;;;;;3.00;1.27;;;12.80;99.90;;;;;;4927581;28;20394;-83
2023/04/25 08:16:35;;;;;;;2.87;1.40;;;13.00;99.90;;;;;;4913632;28;20381;-81
2023/04/25 08:19:01;;;;;;;4.05;1.40;;;13.10;99.90;;;;;;4951449;28;20485;-84
2023/04/25 08:21:27;;;;;;;3.63;1.50;;;13.30;99.90;;;;;;4954852;28;20749;-83
2023/04/25 08:23:53;;;;;;;4.17;1.87;;;13.50;99.90;;;;;;4933860;28;20101;-82
2023/04/25 08:26:18;;;;;;;3.63;1.65;;;13.50;99.90;;;;;;4950795;28;20059;-82
2023/04/25 08:28:44;;;;;;;3.77;1.50;;;13.80;99.90;;;;;;4915369;28;20061;-83
2023/04/25 08:31:10;;;;;;;2.95;1.70;;;14.10;99.90;;;;;;4927628;28;20226;-84
2023/04/25 08:33:36;;;;;;;5.37;2.00;;;14.60;99.90;;;;;;4924385;28;20015;-84
2023/04/25 08:36:02;;;;;;;4.10;1.67;;;15.10;99.90;;;;;;4941645;28;20031;-84
2023/04/25 08:38:28;;;;;;;3.88;1.50;;;15.80;99.90;;;;;;4927459;28;20862;-83
2023/04/25 08:40:55;;;;;;;4.93;1.60;;;16.40;99.90;;;;;;4923747;28;20036;-83
2023/04/25 08:43:21;;;;;;;6.40;2.22;;;16.80;99.90;;;;;;4935796;28;20393;-82
2023/04/25 08:45:47;;;;;;;7.43;2.60;;;17.00;99.90;;;;;;4922817;28;20023;-83
2023/04/25 08:48:18;;;;;;;3.42;1.60;;;17.10;99.90;;;;;;4942977;28;20023;-83
2023/04/25 08:50:54;;;;;;;3.33;1.70;;;17.00;99.90;;;;;;4928944;28;20050;-82
2023/04/25 08:53:32;;;;;;;3.67;1.40;;;16.90;99.10;;;;;;4937177;28;20030;-83
2023/04/25 08:55:59;;;;;;;2.13;1.30;;;16.60;98.70;;;;;;4942332;28;20028;-84
2023/04/25 08:58:26;;;;;;;4.15;1.20;;;16.30;99.90;;;;;;4918709;28;20494;-81
2023/04/25 09:00:52;;;;;;;2.90;1.30;;;16.10;99.90;;;;;;4950200;28;20019;-82
2023/04/25 09:03:18;;;;;;;4.70;1.40;;;15.80;99.90;;;;;;4898612;28;20034;-82
2023/04/25 09:05:45;;;;;;;6.20;1.52;;;15.60;99.90;;;;;;4922515;28;20027;-82
2023/04/25 09:08:10;;;;;;;3.72;1.50;;;15.30;99.90;;;;;;4920820;28;20019;-83
2023/04/25 09:10:37;;;;;;;2.13;1.50;;;15.20;99.90;;;;;;4925972;28;20355;-82
2023/04/25 09:13:14;;;;;;;3.07;1.30;;;15.10;99.90;;;;;;4954678;28;20393;-81
2023/04/25 09:15:55;;;;;;;2.00;1.17;;;15.00;99.90;;;;;;4905886;28;20031;-80
2023/04/25 09:18:28;;;;;;;2.72;1.25;;;15.00;99.90;;;;;;4937199;28;20480;-83
2023/04/25 09:20:55;;;;;;;3.55;1.40;;;15.20;99.90;;;;;;4955642;28;20038;-82
2023/04/25 09:23:22;;;;;;;3.72;1.52;;;15.50;99.90;;;;;;4938225;28;20039;-82
2023/04/25 09:25:53;;;;;;;3.77;1.20;;;16.00;99.90;;;;;;4928511;28;20090;-83
2023/04/25 09:28:27;;;;;;;3.17;1.20;;;16.60;99.90;;;;;;4932466;28;20110;-85
2023/04/25 09:30:59;;;;;;;3.38;1.17;;;17.30;99.90;;;;;;4918036;28;20019;-83
2023/04/25 09:33:30;;;;;;;3.22;1.48;;;17.80;99.90;;;;;;4951936;28;20039;-81
2023/04/25 09:36:08;;;;;;;4.25;1.30;;;18.30;99.90;;;;;;4936775;28;20026;-82
2023/04/25 09:38:45;;;;;;;2.73;1.20;;;18.80;99.90;;;;;;4931020;28;20030;-82
2023/04/25 09:41:11;;;;;;;3.08;1.20;;;19.30;99.90;;;;;;4947916;28;20280;-82
2023/04/25 09:43:38;;;;;;;1.88;1.20;;;19.70;99.90;;;;;;4950470;28;20033;-84
2023/04/25 09:46:09;;;;;;;2.67;1.10;;;20.10;99.90;;;;;;4918754;28;20575;-83
2023/04/25 09:48:35;;;;;;;2.38;1.00;;;20.40;99.90;;;;;;4958445;28;20193;-83
2023/04/25 09:51:03;;;;;;;1.50;1.07;;;20.50;99.90;;;;;;4953227;28;20256;-83
2023/04/25 09:53:30;;;;;;;3.90;1.30;;;20.60;99.90;;;;;;4956936;28;20115;-84
2023/04/25 09:55:56;;;;;;;2.63;1.10;;;20.70;99.90;;;;;;4913229;28;20077;-82
2023/04/25 09:58:24;;;;;;;2.70;1.20;;;20.50;99.70;;;;;;4924830;28;20053;-82
2023/04/25 10:00:58;;;;;;;2.90;1.25;;;20.30;98.50;;;;;;4910063;28;20073;-84
2023/04/25 10:03:25;;;;;;;1.83;1.00;;;20.20;98.50;;;;;;4951983;28;20035;-82
2023/04/25 10:05:52;;;;;;;2.33;1.10;;;20.10;99.90;;;;;;4942712;28;20027;-83
2023/04/25 10:08:19;;;;;;;1.60;1.02;;;20.20;99.90;;;;;;4952626;28;20503;-81
2023/04/25 10:10:46;;;;;;;2.60;1.23;;;20.40;99.90;;;;;;4897661;28;20792;-84
2023/04/25 10:13:14;;;;;;;2.33;1.15;;;20.70;99.90;;;;;;4952508;28;20492;-83
2023/04/25 10:15:41;;;;;;;2.63;1.10;;;21.00;99.90;;;;;;4936711;28;20464;-85
2023/04/25 10:18:07;;;;;;;2.60;1.15;;;21.20;99.90;;;;;;4948781;28;20578;-82
2023/04/25 10:20:33;;;;;;;2.22;0.90;;;21.40;99.90;;;;;;4945818;28;20020;-83
2023/04/25 10:23:11;;;;;;;2.83;1.10;;;21.50;99.90;;;;;;4944536;28;20234;-83
2023/04/25 10:25:36;;;;;;;3.67;1.10;;;21.50;99.10;;;;;;4940373;28;20404;-85
2023/04/25 10:28:04;;;;;;;2.60;1.02;;;21.40;99.50;;;;;;4929823;28;20639;-82
2023/04/25 10:30:29;;;;;;;2.92;1.10;;;21.20;98.30;;;;;;4953206;28;20113;-82
2023/04/25 10:32:55;;;;;;;2.40;1.07;;;21.00;98.30;;;;;;4902921;28;20018;-82
2023/04/25 10:35:27;;;;;;;2.08;1.20;;;20.70;98.10;;;;;;4928297;28;20030;-82
2023/04/25 10:37:59;;;;;;;3.45;1.27;;;20.50;96.50;;;;;;4932657;28;20037;-83
2023/04/25 10:40:25;;;;;;;2.22;1.38;;;20.20;95.30;;;;;;4936973;28;20109;-83
2023/04/25 10:42:55;;;;;;;2.33;1.20;;;19.90;97.30;;;;;;4925325;28;20027;-85
2023/04/25 10:45:22;;;;;;;3.50;1.08;;;19.60;96.70;;;;;;4938629;28;20396;-83
2023/04/25 10:47:48;;;;;;;2.95;1.20;;;19.40;98.30;;;;;;4912247;28;20028;-84
2023/04/25 10:50:17;;;;;;;2.85;1.20;;;19.20;98.70;;;;;;4920266;28;20024;-82
2023/04/25 10:52:44;;;;;;;1.98;1.10;;;19.10;97.80;;;;;;4930124;28;20023;-84
2023/04/25 10:55:10;;;;;;;2.27;1.20;;;19.00;99.60;;;;;;4920327;28;20233;-83
2023/04/25 10:57:47;;;;;;;4.80;1.73;;;18.90;99.90;;;;;;4945749;28;20536;-84
2023/04/25 11:00:18;;;;;;;4.20;1.73;;;18.90;97.90;;;;;;4952612;28;20089;-82
2023/04/25 11:02:46;;;;;;;4.00;1.75;;;18.90;99.30;;;;;;4930973;28;20035;-84
2023/04/25 11:05:21;;;;;;;5.25;2.10;;;18.90;99.90;;;;;;4921164;28;20030;-81
2023/04/25 11:07:56;;;;;;;4.67;1.90;;;19.00;98.90;;;;;;4931720;28;20399;-85
2023/04/25 11:10:26;;;;;;;3.75;1.80;;;19.00;99.90;;;;;;4936102;28;20102;-83
2023/04/25 11:12:51;;;;;;;3.83;1.58;;;19.10;99.90;;;;;;4929128;28;20042;-84
2023/04/25 11:15:17;;;;;;;3.03;1.40;;;19.30;99.90;;;;;;4936676;28;20027;-80
2023/04/25 11:17:46;;;;;;;3.13;1.40;;;19.50;99.90;;;;;;4937843;28;20035;-83
2023/04/25 11:20:13;;;;;;;3.42;1.20;;;19.70;99.90;;;;;;4915251;28;20030;-83
2023/04/25 11:22:42;;;;;;;4.53;1.10;;;19.90;99.90;;;;;;4939706;28;20026;-84
2023/04/25 11:25:09;;;;;;;3.22;1.10;;;20.10;99.90;;;;;;4940271;28;20629;-83
2023/04/25 11:27:39;;;;;;;2.42;1.20;;;20.20;99.90;;;;;;4950312;28;20035;-83
2023/04/25 11:30:13;;;;;;;2.13;1.20;;;20.20;99.60;;;;;;4949295;28;20031;-82
2023/04/25 11:32:40;;;;;;;2.17;1.20;;;20.20;98.90;;;;;;4922896;29;20027;-85
2023/04/25 11:35:07;;;;;;;2.37;1.10;;;20.30;99.90;;;;;;4935608;28;20265;-84
2023/04/25 11:37:33;;;;;;;4.60;1.00;;;20.50;99.90;;;;;;4952279;28;20109;-84
2023/04/25 11:40:00;;;;;;;1.77;1.00;;;20.70;99.90;;;;;;4925184;28;20031;-83
2023/04/25 11:42:26;;;;;;;3.78;1.23;;;20.90;99.90;;;;;;4905861;28;20110;-82
2023/04/25 11:44:52;;;;;;;3.50;1.15;;;21.10;99.90;;;;;;4924808;28;20027;-83
2023/04/25 11:47:18;;;;;;;3.07;1.20;;;21.40;99.90;;;;;;4939597;28;20488;-81
2023/04/25 11:49:43;;;;;;;2.42;1.20;;;21.60;99.90;;;;;;4938245;28;20592;-84
2023/04/25 11:52:09;;;;;;;1.73;1.00;;;21.70;99.90;;;;;;4928787;28;20248;-82
2023/04/25 11:54:36;;;;;;;2.70;1.10;;;21.80;99.90;;;;;;4939210;28;20448;-84
2023/04/25 11:57:03;;;;;;;1.55;1.08;;;21.90;99.90;;;;;;4922555;28;20409;-79
2023/04/25 11:59:28;;;;;;;1.90;0.90;;;21.80;98.60;;;;;;4930270;28;20508;-82
2023/04/25 12:01:54;;;;;;;1.87;1.00;;;21.70;97.60;;;;;;4944008;28;20027;-81
2023/04/25 12:04:23;;;;;;;2.33;1.30;;;21.60;97.60;;;;;;4936981;28;20104;-82
2023/04/25 12:06:51;;;;;;;1.40;1.00;;;21.50;98.70;;;;;;4934285;28;20448;-83
2023/04/25 12:09:28;;;;;;;1.10;0.90;;;21.60;98.50;;;;;;4937381;28;20564;-82
2023/04/25 12:11:56;;;;;;;1.47;1.00;;;21.70;98.80;;;;;;4934635;28;20698;-81
2023/04/25 12:14:24;;;;;;;3.10;1.20;;;21.80;99.90;;;;;;4928158;28;20444;-82
2023/04/25 12:16:53;;;;;;;2.95;1.02;;;22.10;99.90;;;;;;4934285;28;20034;-84
2023/04/25 12:19:20;;;;;;;3.15;1.08;;;22.40;99.90;;;;;;4960288;28;20038;-83
2023/04/25 12:21:47;;;;;;;1.52;1.00;;;22.70;99.90;;;;;;4917062;28;20082;-84
2023/04/25 12:24:15;;;;;;;1.90;0.97;;;22.90;99.60;;;;;;4922268;28;20027;-82
2023/04/25 12:27:01;;;;;;;1.17;0.80;;;23.00;97.10;;;;;;4940949;28;20073;-83
2023/04/25 12:29:29;;;;;;;2.00;0.90;;;22.80;92.90;;;;;;4944847;28;20055;-82
2023/04/25 12:31:56;;;;;;;1.85;1.00;;;22.50;95.30;;;;;;4943041;28;20055;-83
2023/04/25 12:34:22;;;;;;;3.45;1.15;;;22.30;95.10;;;;;;4954805;28;20031;-82
2023/04/25 12:36:49;;;;;;;1.60;0.77;;;22.10;94.90;;;;;;4932110;28;20038;-84
2023/04/25 12:39:21;;;;;;;1.98;0.70;;;21.70;95.00;;;;;;4940786;28;20066;-81
2023/04/25 12:41:48;;;;;;;1.77;0.80;;;21.40;94.30;;;;;;4948001;28;20026;-83
2023/04/25 12:44:15;;;;;;;1.55;0.80;;;21.20;95.50;;;;;;4942985;28;20469;-81
2023/04/25 12:46:40;;;;;;;1.60;0.90;;;20.90;95.00;;;;;;4930741;28;20414;-83